createdAt,value
2019-05-25T04:30:53.840Z,15.10
2019-05-25T04:33:22.316Z,15.20
2019-05-25T04:35:50.760Z,15.20
2019-05-25T04:38:19.192Z,15.10
2019-05-25T04:40:47.628Z,15.00
2019-05-25T04:43:16.096Z,15.20
2019-05-25T04:45:44.629Z,15.20
2019-05-25T04:48:13.391Z,15.20
2019-05-25T04:50:41.868Z,15.10
2019-05-25T04:53:10.307Z,15.10
2019-05-25T04:55:38.740Z,15.20
2019-05-25T04:58:07.178Z,15.40
2019-05-25T05:00:35.608Z,15.40
2019-05-25T05:03:04.120Z,15.40
2019-05-25T05:05:32.552Z,15.40
2019-05-25T05:08:00.995Z,15.30
2019-05-25T05:10:29.415Z,15.40
2019-05-25T05:12:57.936Z,15.40
2019-05-25T05:15:26.364Z,15.50
2019-05-25T05:17:54.856Z,15.50
2019-05-25T05:20:23.456Z,15.50
2019-05-25T05:22:51.917Z,15.60
2019-05-25T05:25:20.355Z,15.80
2019-05-25T05:27:48.802Z,15.80
2019-05-25T05:30:18.927Z,16.00
2019-05-25T05:32:47.435Z,16.10
2019-05-25T05:35:16.123Z,16.20
2019-05-25T05:37:45.878Z,16.30
2019-05-25T05:40:15.440Z,16.40
2019-05-25T05:42:46.892Z,16.40
2019-05-25T05:45:15.590Z,16.50
2019-05-25T05:47:45.663Z,16.50
2019-05-25T05:50:14.997Z,16.60
2019-05-25T05:52:43.452Z,16.70
2019-05-25T05:55:12.613Z,16.70
2019-05-25T05:57:41.073Z,16.70
2019-05-25T06:00:11.177Z,16.70
2019-05-25T06:02:39.615Z,16.80
2019-05-25T06:05:08.117Z,16.80
2019-05-25T06:07:36.633Z,16.90
2019-05-25T06:10:09.039Z,16.90
2019-05-25T06:12:37.624Z,16.90
2019-05-25T06:15:06.939Z,17.00
2019-05-25T06:17:35.394Z,17.10
2019-05-25T06:20:06.486Z,17.30
2019-05-25T06:22:34.984Z,17.40
2019-05-25T06:25:04.081Z,17.40
2019-05-25T06:27:32.515Z,17.50
2019-05-25T06:30:00.983Z,17.60
2019-05-25T06:32:29.449Z,17.70
2019-05-25T06:34:57.995Z,17.70
2019-05-25T06:37:26.435Z,17.70
2019-05-25T06:39:54.916Z,17.60
2019-05-25T06:42:23.363Z,17.70
2019-05-25T06:44:51.884Z,17.70
2019-05-25T06:47:20.367Z,17.70
2019-05-25T06:49:48.787Z,17.70
2019-05-25T06:52:17.731Z,17.70
2019-05-25T06:54:46.835Z,17.70
2019-05-25T06:57:15.297Z,17.60
2019-05-25T06:59:43.719Z,17.70
2019-05-25T07:02:12.163Z,17.70
2019-05-25T07:04:40.588Z,17.60
2019-05-25T07:07:09.024Z,17.70
2019-05-25T07:09:37.467Z,17.80
2019-05-25T07:12:05.970Z,18.00
2019-05-25T07:14:34.423Z,17.90
2019-05-25T07:17:02.924Z,17.90
2019-05-25T07:19:31.349Z,18.10
2019-05-25T07:22:00.014Z,18.30
2019-05-25T07:24:28.481Z,18.20
2019-05-25T07:26:57.028Z,18.30
2019-05-25T07:29:25.460Z,18.10
2019-05-25T07:31:53.899Z,18.20
2019-05-25T07:34:22.330Z,18.30
2019-05-25T07:36:50.752Z,18.50
2019-05-25T07:39:19.193Z,18.80
2019-05-25T07:41:47.628Z,19.00
2019-05-25T07:44:16.149Z,19.20
2019-05-25T07:46:44.567Z,19.20
2019-05-25T07:49:12.996Z,19.40
2019-05-25T07:51:41.499Z,19.40
2019-05-25T07:54:09.928Z,19.50
2019-05-25T07:56:38.357Z,19.50
2019-05-25T07:59:06.797Z,19.70
2019-05-25T08:01:35.220Z,19.80
2019-05-25T08:04:03.854Z,20.10
2019-05-25T08:06:32.343Z,20.40
2019-05-25T08:09:00.789Z,20.20
2019-05-25T08:11:29.276Z,20.40
2019-05-25T08:13:57.734Z,20.80
2019-05-25T08:16:26.244Z,20.70
2019-05-25T08:18:54.833Z,20.90
2019-05-25T08:21:23.256Z,21.10
2019-05-25T08:23:51.679Z,21.30
2019-05-25T08:26:20.108Z,21.20
2019-05-25T08:28:48.536Z,21.30
2019-05-25T08:31:16.958Z,21.70
2019-05-25T08:33:45.376Z,22.10
2019-05-25T08:36:13.876Z,21.60
2019-05-25T08:38:42.307Z,21.50
2019-05-25T08:41:12.828Z,21.60
2019-05-25T08:43:41.253Z,21.80
2019-05-25T08:46:09.791Z,22.10
2019-05-25T08:48:38.247Z,22.40
2019-05-25T08:51:06.790Z,22.60
2019-05-25T08:53:41.275Z,22.80
2019-05-25T08:56:05.496Z,22.80
2019-05-25T08:58:47.547Z,22.30
2019-05-25T09:01:04.199Z,22.30
2019-05-25T09:03:32.688Z,22.40
2019-05-25T09:06:01.291Z,22.20
2019-05-25T09:08:29.856Z,22.10
2019-05-25T09:10:58.292Z,21.80
2019-05-25T09:13:27.019Z,21.90
2019-05-25T09:15:55.774Z,21.70
2019-05-25T09:18:24.770Z,21.50
2019-05-25T09:20:53.535Z,21.50
2019-05-25T09:23:22.112Z,21.50
2019-05-25T09:25:50.740Z,21.80
2019-05-25T09:28:19.254Z,22.00
2019-05-25T09:30:47.679Z,22.10
2019-05-25T09:33:16.112Z,22.00
2019-05-25T09:35:44.555Z,22.30
2019-05-25T09:38:13.022Z,22.30
2019-05-25T09:40:41.526Z,22.10
2019-05-25T09:43:09.947Z,21.90
2019-05-25T09:45:38.388Z,22.30
2019-05-25T09:48:06.820Z,22.70
2019-05-25T09:50:35.380Z,22.90
2019-05-25T09:53:03.812Z,23.20
2019-05-25T09:55:32.335Z,23.30
2019-05-25T09:58:00.797Z,23.20
2019-05-25T10:00:29.500Z,23.20
2019-05-25T10:02:57.952Z,23.20
2019-05-25T10:05:26.394Z,23.00
2019-05-25T10:07:54.823Z,23.00
2019-05-25T10:10:23.426Z,23.00
2019-05-25T10:12:51.856Z,23.20
2019-05-25T10:15:20.443Z,23.80
2019-05-25T10:17:48.973Z,24.40
2019-05-25T10:20:19.915Z,25.10
2019-05-25T10:22:48.348Z,25.50
2019-05-25T10:25:17.177Z,25.80
2019-05-25T10:27:45.600Z,25.50
2019-05-25T10:30:14.684Z,25.10
2019-05-25T10:32:43.200Z,24.80
2019-05-25T10:35:12.112Z,24.00
2019-05-25T10:37:40.555Z,23.70
2019-05-25T10:40:09.612Z,23.80
2019-05-25T10:42:38.050Z,24.10
2019-05-25T10:45:08.406Z,24.70
2019-05-25T10:47:37.009Z,24.90
2019-05-25T10:50:09.594Z,24.80
2019-05-25T10:52:38.091Z,25.00
2019-05-25T10:55:10.328Z,25.40
2019-05-25T10:57:39.057Z,25.40
2019-05-25T11:00:09.911Z,25.30
2019-05-25T11:02:38.416Z,25.30
2019-05-25T11:05:07.770Z,25.10
2019-05-25T11:07:37.048Z,24.90
2019-05-25T11:10:08.693Z,25.10
2019-05-25T11:12:37.210Z,25.30
2019-05-25T11:15:07.949Z,25.20
2019-05-25T11:17:36.448Z,25.10
2019-05-25T11:20:09.267Z,25.50
2019-05-25T11:22:37.714Z,26.20
2019-05-25T11:25:08.045Z,26.50
2019-05-25T11:27:36.551Z,26.20
2019-05-25T11:30:09.602Z,25.30
2019-05-25T11:32:37.069Z,24.40
2019-05-25T11:35:06.522Z,23.50
2019-05-25T11:37:35.038Z,22.80
2019-05-25T11:40:08.145Z,22.00
2019-05-25T11:42:36.592Z,21.60
2019-05-25T11:45:07.107Z,21.20
2019-05-25T11:47:35.548Z,20.50
2019-05-25T11:50:07.176Z,20.30
2019-05-25T11:52:35.619Z,20.00
2019-05-25T11:55:06.785Z,19.70
2019-05-25T11:57:35.356Z,19.60
2019-05-25T12:00:06.862Z,19.40
2019-05-25T12:02:35.309Z,19.30
2019-05-25T12:05:07.361Z,18.70
2019-05-25T12:07:35.876Z,18.20
2019-05-25T12:10:06.340Z,18.10
2019-05-25T12:12:35.021Z,18.00
2019-05-25T12:15:05.211Z,18.00
2019-05-25T12:17:33.737Z,17.90
2019-05-25T12:20:02.546Z,17.90
2019-05-25T12:22:31.138Z,18.10
2019-05-25T12:24:59.745Z,18.10
2019-05-25T12:27:28.330Z,18.10
2019-05-25T12:29:56.901Z,18.10
2019-05-25T12:32:25.399Z,18.10
2019-05-25T12:34:54.220Z,18.20
2019-05-25T12:37:22.663Z,18.10
2019-05-25T12:39:51.149Z,18.20
2019-05-25T12:42:19.640Z,18.40
2019-05-25T12:44:48.097Z,18.70
2019-05-25T12:47:16.634Z,19.00
2019-05-25T12:49:50.720Z,19.10
2019-05-25T12:52:15.236Z,19.50
2019-05-25T12:54:43.669Z,20.00
2019-05-25T12:57:12.177Z,20.20
2019-05-25T12:59:40.640Z,20.40
2019-05-25T13:02:09.081Z,20.50
2019-05-25T13:04:37.612Z,20.40
2019-05-25T13:07:06.108Z,20.60
2019-05-25T13:09:34.569Z,20.50
2019-05-25T13:12:03.312Z,20.50
2019-05-25T13:14:31.831Z,20.40
2019-05-25T13:17:00.352Z,20.40
2019-05-25T13:19:28.781Z,20.50
2019-05-25T13:21:57.699Z,20.50
2019-05-25T13:24:26.116Z,20.60
2019-05-25T13:26:54.560Z,20.70
2019-05-25T13:29:23.372Z,20.80
2019-05-25T13:31:51.860Z,20.90
2019-05-25T13:34:20.284Z,20.80
2019-05-25T13:36:48.709Z,20.80
2019-05-25T13:39:17.133Z,20.80
2019-05-25T13:41:45.637Z,20.80
2019-05-25T13:44:14.056Z,20.70
2019-05-25T13:46:42.479Z,20.60
2019-05-25T13:49:10.975Z,20.30
2019-05-25T13:51:39.459Z,20.20
2019-05-25T13:54:07.883Z,19.90
2019-05-25T13:56:36.310Z,19.70
2019-05-25T13:59:04.810Z,19.50
2019-05-25T14:01:33.273Z,19.30
2019-05-25T14:04:02.256Z,19.00
2019-05-25T14:06:30.736Z,18.50
2019-05-25T14:08:59.310Z,18.30
2019-05-25T14:11:27.862Z,18.30
2019-05-25T14:13:56.477Z,18.30
2019-05-25T14:16:25.044Z,18.30
2019-05-25T14:18:54.392Z,18.30
2019-05-25T14:21:23.276Z,18.30
2019-05-25T14:23:53.464Z,18.10
2019-05-25T14:26:22.123Z,18.10
2019-05-25T14:28:50.916Z,18.10
2019-05-25T14:31:19.473Z,18.00
2019-05-25T14:33:49.855Z,17.90
2019-05-25T14:36:18.373Z,17.80
2019-05-25T14:38:46.861Z,17.90
2019-05-25T14:41:15.294Z,18.00
2019-05-25T14:43:43.716Z,17.90
2019-05-25T14:46:26.964Z,18.00
2019-05-25T14:48:42.296Z,17.90
2019-05-25T14:51:10.804Z,17.90
2019-05-25T14:53:39.236Z,18.00
2019-05-25T14:56:07.663Z,17.90
2019-05-25T14:58:36.165Z,18.00
2019-05-25T15:01:04.992Z,18.10
2019-05-25T15:03:33.539Z,18.10
2019-05-25T15:06:01.980Z,18.40
2019-05-25T15:08:30.472Z,18.30
2019-05-25T15:10:58.933Z,18.30
2019-05-25T15:13:27.363Z,18.30
2019-05-25T15:15:55.794Z,18.50
2019-05-25T15:18:24.303Z,18.70
2019-05-25T15:20:54.193Z,18.80
2019-05-25T15:23:22.799Z,18.90
2019-05-25T15:25:52.006Z,19.00
2019-05-25T15:28:20.459Z,19.10
2019-05-25T15:30:48.880Z,19.20
2019-05-25T15:33:17.308Z,19.20
2019-05-25T15:35:45.746Z,19.10
2019-05-25T15:38:14.176Z,19.30
2019-05-25T15:40:42.668Z,19.30
2019-05-25T15:43:11.096Z,19.30
2019-05-25T15:45:40.554Z,19.50
2019-05-25T15:48:08.990Z,19.60
2019-05-25T15:50:37.412Z,19.60
2019-05-25T15:53:05.901Z,19.50
2019-05-25T15:55:34.480Z,19.50
2019-05-25T15:58:02.912Z,19.30
2019-05-25T16:00:49.536Z,19.20
2019-05-25T16:03:20.009Z,19.20
2019-05-25T16:05:49.372Z,19.00
2019-05-25T16:08:19.709Z,18.90
2019-05-25T16:10:48.582Z,18.90
2019-05-25T16:13:17.383Z,18.80
2019-05-25T16:15:45.809Z,18.70
2019-05-25T16:18:14.231Z,18.80
2019-05-25T16:20:42.655Z,18.60
2019-05-25T16:23:11.152Z,18.70
2019-05-25T16:25:39.598Z,18.60
2019-05-25T16:28:08.339Z,18.70
2019-05-25T16:30:36.807Z,18.80
2019-05-25T16:33:12.536Z,18.70
2019-05-25T16:35:35.685Z,18.60
2019-05-25T16:38:05.726Z,18.50
2019-05-25T16:40:34.280Z,18.40
2019-05-25T16:43:02.712Z,18.30
2019-05-25T16:45:31.151Z,18.50
2019-05-25T16:47:59.668Z,18.50
2019-05-25T16:50:28.173Z,18.40
2019-05-25T16:52:56.601Z,18.40
2019-05-25T16:55:25.070Z,18.30
2019-05-25T16:57:53.626Z,18.30
2019-05-25T17:00:31.000Z,18.40
2019-05-25T17:03:00.061Z,18.30
2019-05-25T17:05:28.939Z,18.50
2019-05-25T17:07:57.882Z,18.50
2019-05-25T17:10:27.611Z,18.60
2019-05-25T17:12:56.125Z,18.60
2019-05-25T17:15:24.575Z,18.60
2019-05-25T17:17:53.085Z,18.50
2019-05-25T17:20:22.157Z,18.60
2019-05-25T17:22:50.686Z,18.40
2019-05-25T17:25:19.727Z,18.30
2019-05-25T17:27:48.170Z,18.30
2019-05-25T17:30:18.420Z,18.00
2019-05-25T17:32:46.849Z,17.60
2019-05-25T17:35:15.535Z,17.40
2019-05-25T17:37:43.963Z,17.40
2019-05-25T17:40:12.727Z,17.20
2019-05-25T17:42:41.167Z,17.20
2019-05-25T17:45:09.943Z,17.30
2019-05-25T17:47:38.379Z,17.20
2019-05-25T17:50:08.014Z,17.20
2019-05-25T17:52:36.453Z,17.20
2019-05-25T17:55:06.721Z,17.20
2019-05-25T17:57:35.237Z,17.10
2019-05-25T18:00:06.324Z,17.00
2019-05-25T18:02:34.853Z,17.00
2019-05-25T18:05:04.258Z,17.00
2019-05-25T18:07:32.956Z,16.80
2019-05-25T18:10:01.385Z,16.80
2019-05-25T18:12:29.813Z,16.90
2019-05-25T18:14:58.256Z,17.00
2019-05-25T18:17:26.748Z,17.00
2019-05-25T18:19:55.189Z,16.90
2019-05-25T18:22:23.630Z,16.90
2019-05-25T18:24:52.065Z,16.90
2019-05-25T18:27:20.570Z,17.00
2019-05-25T18:29:49.669Z,16.90
2019-05-25T18:32:18.124Z,16.80
2019-05-25T18:34:46.573Z,16.80
2019-05-25T18:37:15.011Z,16.70
2019-05-25T18:39:43.445Z,16.60
2019-05-25T18:42:11.875Z,16.50
2019-05-25T18:44:40.323Z,16.50
2019-05-25T18:47:08.966Z,16.70
2019-05-25T18:49:37.494Z,16.60
2019-05-25T18:52:05.942Z,16.60
2019-05-25T18:54:34.541Z,16.60
2019-05-25T18:57:08.368Z,16.50
2019-05-25T18:59:33.961Z,16.40
2019-05-25T19:02:02.427Z,16.40
2019-05-25T19:04:45.372Z,16.30
2019-05-25T19:07:01.127Z,16.40
2019-05-25T19:09:29.565Z,16.50
2019-05-25T19:11:58.021Z,16.40
2019-05-25T19:14:27.030Z,16.50
2019-05-25T19:16:55.618Z,16.50
2019-05-25T19:19:24.066Z,16.50
2019-05-25T19:21:52.523Z,16.40
2019-05-25T19:24:20.958Z,16.40
2019-05-25T19:26:49.434Z,16.50
2019-05-25T19:29:17.923Z,16.50
2019-05-25T19:31:46.467Z,16.40
2019-05-25T19:34:14.896Z,16.40
2019-05-25T19:36:43.335Z,16.40
2019-05-25T19:39:11.835Z,16.30
2019-05-25T19:41:40.319Z,16.20
2019-05-25T19:44:08.764Z,16.20
2019-05-25T19:46:37.184Z,16.20
2019-05-25T19:49:05.607Z,16.20
2019-05-25T19:51:34.130Z,16.10
2019-05-25T19:54:02.579Z,15.90
2019-05-25T19:56:31.033Z,15.90
2019-05-25T19:58:59.538Z,15.90
2019-05-25T20:01:27.976Z,15.90
2019-05-25T20:03:57.406Z,15.90
2019-05-25T20:06:26.122Z,15.70
2019-05-25T20:08:54.633Z,15.60
2019-05-25T20:11:23.144Z,15.60
2019-05-25T20:13:51.584Z,15.50
2019-05-25T20:16:24.961Z,15.50
2019-05-25T20:18:52.140Z,15.50
2019-05-25T20:21:20.593Z,15.50
2019-05-25T20:23:49.176Z,15.50
2019-05-25T20:26:17.683Z,15.50
2019-05-25T20:28:46.185Z,15.40
2019-05-25T20:31:14.701Z,15.50
2019-05-25T20:33:44.814Z,15.50
2019-05-25T20:36:13.251Z,15.40
2019-05-25T20:38:41.713Z,15.40
2019-05-25T20:41:10.142Z,15.30
2019-05-25T20:43:38.603Z,15.30
2019-05-25T20:46:07.239Z,15.30
2019-05-25T20:48:35.689Z,15.20
2019-05-25T20:51:05.139Z,15.20
2019-05-25T20:53:33.715Z,15.10
2019-05-25T20:56:02.182Z,15.00
2019-05-25T20:58:30.627Z,14.90
2019-05-25T21:00:59.077Z,14.90
2019-05-25T21:03:30.437Z,14.90
2019-05-25T21:05:58.891Z,14.90
2019-05-25T21:08:27.342Z,14.90
2019-05-25T21:10:56.452Z,14.90
2019-05-25T21:13:27.420Z,14.70
2019-05-25T21:15:55.904Z,14.70
2019-05-25T21:18:24.342Z,14.70
2019-05-25T21:20:52.807Z,14.60
2019-05-25T21:23:21.348Z,14.40
2019-05-25T21:25:49.789Z,14.20
2019-05-25T21:28:18.298Z,14.20
2019-05-25T21:30:46.738Z,14.10
2019-05-25T21:33:15.193Z,14.10
2019-05-25T21:35:43.659Z,14.00
2019-05-25T21:38:12.092Z,14.10
2019-05-25T21:40:41.468Z,14.00
2019-05-25T21:43:09.897Z,14.00
2019-05-25T21:45:38.396Z,13.90
2019-05-25T21:48:06.837Z,13.90
2019-05-25T21:50:35.284Z,13.90
2019-05-25T21:53:03.892Z,13.80
2019-05-25T21:55:32.344Z,14.00
2019-05-25T21:58:00.772Z,13.90
2019-05-25T22:00:31.002Z,13.90
2019-05-25T22:02:59.690Z,13.90
2019-05-25T22:05:30.714Z,14.00
2019-05-25T22:07:58.489Z,14.00
2019-05-25T22:10:27.083Z,14.10
2019-05-25T22:12:55.519Z,14.10
2019-05-25T22:15:24.000Z,14.10
2019-05-25T22:17:52.464Z,14.10
2019-05-25T22:20:21.439Z,14.00
2019-05-25T22:22:49.873Z,14.00
2019-05-25T22:25:18.491Z,14.00
2019-05-25T22:27:46.941Z,14.00
2019-05-25T22:30:16.125Z,14.00
2019-05-25T22:32:44.608Z,14.10
2019-05-25T22:35:13.627Z,14.00
2019-05-25T22:37:42.070Z,14.00
2019-05-25T22:40:11.009Z,14.00
2019-05-25T22:42:39.441Z,14.00
2019-05-25T22:45:08.417Z,14.00
2019-05-25T22:47:36.848Z,14.10
2019-05-25T22:50:06.229Z,14.10
2019-05-25T22:52:34.668Z,14.10
2019-05-25T22:55:03.867Z,14.20
2019-05-25T22:57:32.319Z,14.30
2019-05-25T23:00:00.778Z,14.40
2019-05-25T23:02:29.260Z,14.40
2019-05-25T23:04:57.773Z,14.30
2019-05-25T23:07:26.268Z,14.20
2019-05-25T23:09:54.698Z,14.10
2019-05-25T23:12:23.132Z,14.20
2019-05-25T23:14:51.569Z,14.20
2019-05-25T23:17:19.999Z,14.20
2019-05-25T23:19:48.432Z,14.10
2019-05-25T23:22:16.859Z,14.10
2019-05-25T23:24:45.296Z,13.90
2019-05-25T23:27:16.007Z,13.90
2019-05-25T23:29:43.888Z,13.80
